createdAt,value
2019-03-29T01:00:40.480Z,96556.23
2019-03-29T01:05:41.785Z,96548.59
2019-03-29T01:10:43.116Z,96554.32
2019-03-29T01:15:44.432Z,96552.25
2019-03-29T01:20:45.774Z,96549.16
2019-03-29T01:25:47.090Z,96546.52
2019-03-29T02:34:10.207Z,96521.20
2019-03-29T02:39:12.256Z,96527.53
2019-03-29T02:44:13.580Z,96517.52
2019-03-29T02:49:14.895Z,96514.95
2019-03-29T02:54:16.209Z,96512.17
2019-03-29T02:59:17.497Z,96511.81
2019-03-29T04:01:18.324Z,96524.30
2019-03-29T04:06:20.353Z,96520.16
2019-03-29T04:11:21.686Z,96517.06
2019-03-29T04:16:23.010Z,96511.51
2019-03-29T04:21:24.371Z,96516.66
2019-03-29T04:26:25.721Z,96517.03
2019-03-29T05:34:47.249Z,96502.67
2019-03-29T05:39:48.608Z,96506.91
2019-03-29T05:44:50.010Z,96511.00
2019-03-29T05:49:51.298Z,96504.83
2019-03-29T05:54:52.649Z,96505.73
2019-03-29T05:59:54.715Z,96497.75
2019-03-29T07:01:59.175Z,96513.33
2019-03-29T07:07:00.453Z,96506.83
2019-03-29T07:12:01.797Z,96503.47
2019-03-29T07:17:03.122Z,96509.23
2019-03-29T07:22:04.398Z,96505.12
2019-03-29T07:27:06.461Z,96502.16
2019-03-29T08:35:28.149Z,96486.85
2019-03-29T08:40:29.455Z,96487.11
2019-03-29T08:45:30.772Z,96486.61
2019-03-29T08:50:32.064Z,96487.13
2019-03-29T08:55:45.110Z,96482.01
2019-03-29T09:00:34.681Z,96484.50
2019-03-29T10:02:36.473Z,96439.72
2019-03-29T10:07:37.765Z,96439.61
2019-03-29T10:12:43.682Z,96438.33
2019-03-29T10:17:40.474Z,96434.52
2019-03-29T10:22:41.836Z,96428.95
2019-03-29T10:27:43.097Z,96421.20
2019-03-29T11:36:06.448Z,96380.96
2019-03-29T11:41:08.468Z,96382.53
2019-03-29T11:46:09.745Z,96378.42
2019-03-29T11:51:19.192Z,96369.95
2019-03-29T11:56:12.357Z,96373.63
2019-03-29T13:04:36.321Z,96326.63
2019-03-29T13:09:39.775Z,96321.63
2019-03-29T13:14:39.657Z,96311.19
2019-03-29T13:19:41.680Z,96311.77
2019-03-29T13:24:42.992Z,96307.39
2019-03-29T13:29:45.094Z,96295.51
2019-03-29T14:31:47.869Z,96223.41
2019-03-29T14:36:49.162Z,96213.55
2019-03-29T14:41:50.518Z,96216.39
2019-03-29T14:46:51.941Z,96209.44
2019-03-29T14:51:53.227Z,96202.72
2019-03-29T14:56:54.533Z,96199.34
2019-03-29T16:05:16.414Z,96160.45
2019-03-29T16:10:17.769Z,96153.37
2019-03-29T16:15:34.950Z,96161.45
2019-03-29T16:20:27.500Z,96155.59
2019-03-29T16:25:28.869Z,96154.05
2019-03-29T16:30:32.842Z,96155.09
2019-03-29T16:35:34.832Z,96154.33
2019-03-29T16:40:36.213Z,96154.03
2019-03-29T16:45:47.867Z,96145.39
2019-03-29T16:50:39.007Z,96154.84
2019-03-29T16:55:40.366Z,96159.62
2019-03-29T17:00:41.822Z,96149.42
2019-03-29T17:05:43.347Z,96150.31
2019-03-29T17:10:44.840Z,96152.91
2019-03-29T17:15:46.280Z,96149.65
2019-03-29T17:20:48.607Z,96146.95
2019-03-29T17:25:49.900Z,96148.20
2019-03-29T17:30:51.284Z,96151.77
2019-03-29T17:35:56.445Z,96149.27
2019-03-29T17:40:58.032Z,96149.73
2019-03-29T17:45:59.612Z,96148.25
2019-03-29T17:51:01.081Z,96149.63
2019-03-29T17:56:03.356Z,96160.39
2019-03-29T18:01:13.422Z,96162.98
2019-03-29T18:11:34.962Z,96172.47
2019-03-29T18:16:40.759Z,96171.37
2019-03-29T18:21:48.439Z,96172.73
2019-03-29T18:26:49.845Z,96180.70
2019-03-29T18:31:51.206Z,96186.89
2019-03-29T18:36:52.517Z,96187.27
2019-03-29T18:41:53.921Z,96186.83
2019-03-29T18:46:55.305Z,96185.80
2019-03-29T18:51:56.794Z,96190.31
2019-03-29T18:56:58.126Z,96194.34
2019-03-29T19:01:59.778Z,96194.14
2019-03-29T19:07:00.893Z,96190.53
2019-03-29T19:12:02.998Z,96196.30
2019-03-29T19:17:04.412Z,96192.73
2019-03-29T19:22:08.078Z,96188.06
2019-03-29T19:27:13.079Z,96184.69
2019-03-29T19:32:18.601Z,96180.21
2019-03-29T19:37:27.207Z,96176.08
2019-03-29T19:42:31.517Z,96176.91
2019-03-29T19:47:36.405Z,96171.66
2019-03-29T19:52:40.097Z,96170.55
2019-03-29T19:57:47.413Z,96177.59
2019-03-29T20:02:48.583Z,96183.78
2019-03-29T20:07:49.899Z,96176.65
2019-03-29T20:12:52.819Z,96176.97
2019-03-29T20:17:54.911Z,96172.23
2019-03-29T20:22:56.990Z,96169.45
2019-03-29T20:27:59.034Z,96179.88
2019-03-29T20:33:00.459Z,96172.44
2019-03-29T20:38:01.774Z,96178.63
2019-03-29T20:43:03.109Z,96169.96
2019-03-29T20:48:04.486Z,96172.63
2019-03-29T20:53:05.808Z,96164.38
2019-03-29T20:58:08.013Z,96160.45
2019-03-29T21:03:09.483Z,96164.87
2019-03-29T21:08:10.825Z,96163.68
2019-03-29T21:13:12.144Z,96173.02
2019-03-29T21:18:13.492Z,96166.38
2019-03-29T21:23:14.822Z,96161.42
2019-03-29T21:28:16.273Z,96157.92
2019-03-29T21:33:17.614Z,96157.61
2019-03-29T21:38:18.951Z,96157.16
2019-03-29T21:43:20.300Z,96151.62
2019-03-29T21:48:28.710Z,96146.73
2019-03-29T21:53:23.633Z,96142.48
2019-03-29T21:58:25.062Z,96135.44
2019-03-29T22:03:27.149Z,96131.27
2019-03-29T22:08:29.086Z,96125.51
2019-03-29T22:13:30.479Z,96126.27
2019-03-29T22:18:37.802Z,96115.28
2019-03-29T22:23:33.385Z,96111.47
2019-03-29T22:28:34.810Z,96118.09
2019-03-29T22:33:36.219Z,96115.27
2019-03-29T22:38:37.654Z,96107.61
2019-03-29T22:43:39.062Z,96104.86
2019-03-29T22:48:51.571Z,96099.02
2019-03-29T22:53:41.873Z,96098.72
2019-03-29T22:58:43.270Z,96103.25
2019-03-29T23:35:26.509Z,96067.81
2019-03-29T23:40:27.785Z,96069.77
2019-03-29T23:45:29.083Z,96066.53
2019-03-29T23:50:30.401Z,96068.25
2019-03-29T23:55:31.736Z,96068.95
